sensor_id;sensor_type;location;lat;lon;timestamp;pressure;altitude;pressure_sealevel;temperature;humidity
9538;BME280;4807;48.024;11.726;2023-03-25T00:01:48;94473.31;;;7.51;74.26
9538;BME280;4807;48.024;11.726;2023-03-25T00:04:57;94481.63;;;7.48;74.01
9538;BME280;4807;48.024;11.726;2023-03-25T00:08:06;94485.69;;;7.16;76.16
9538;BME280;4807;48.024;11.726;2023-03-25T00:11:15;94480.25;;;7.24;75.04
9538;BME280;4807;48.024;11.726;2023-03-25T00:14:25;94482.88;;;7.24;75.61
9538;BME280;4807;48.024;11.726;2023-03-25T00:17:33;94476.06;;;7.37;74.55
9538;BME280;4807;48.024;11.726;2023-03-25T00:20:43;94477.38;;;7.19;74.66
9538;BME280;4807;48.024;11.726;2023-03-25T00:23:51;94472.56;;;7.30;75.08
9538;BME280;4807;48.024;11.726;2023-03-25T00:27:00;94466.97;;;7.18;74.85
9538;BME280;4807;48.024;11.726;2023-03-25T00:30:12;94458.44;;;7.22;74.59
9538;BME280;4807;48.024;11.726;2023-03-25T00:33:21;94452.16;;;7.30;73.81
9538;BME280;4807;48.024;11.726;2023-03-25T00:36:30;94454.06;;;7.08;74.85
9538;BME280;4807;48.024;11.726;2023-03-25T00:39:38;94458.91;;;7.05;75.26
9538;BME280;4807;48.024;11.726;2023-03-25T00:42:46;94461.00;;;7.37;73.00
9538;BME280;4807;48.024;11.726;2023-03-25T00:45:58;94462.25;;;7.13;74.43
9538;BME280;4807;48.024;11.726;2023-03-25T00:49:07;94451.72;;;7.20;73.93
9538;BME280;4807;48.024;11.726;2023-03-25T00:52:16;94445.53;;;7.41;72.44
9538;BME280;4807;48.024;11.726;2023-03-25T00:55:25;94456.03;;;7.27;73.51
9538;BME280;4807;48.024;11.726;2023-03-25T00:58:34;94457.47;;;7.30;72.94
9538;BME280;4807;48.024;11.726;2023-03-25T01:01:44;94457.75;;;7.42;72.89
9538;BME280;4807;48.024;11.726;2023-03-25T01:04:54;94455.91;;;7.36;72.73
9538;BME280;4807;48.024;11.726;2023-03-25T01:08:03;94447.16;;;7.42;72.76
9538;BME280;4807;48.024;11.726;2023-03-25T01:11:18;94461.38;;;7.62;71.26
9538;BME280;4807;48.024;11.726;2023-03-25T01:14:29;94454.38;;;7.89;69.92
9538;BME280;4807;48.024;11.726;2023-03-25T01:17:40;94451.81;;;8.02;70.18
9538;BME280;4807;48.024;11.726;2023-03-25T01:20:48;94440.78;;;8.05;69.54
9538;BME280;4807;48.024;11.726;2023-03-25T01:23:56;94437.56;;;8.10;68.63
9538;BME280;4807;48.024;11.726;2023-03-25T01:27:05;94437.56;;;8.10;69.47
9538;BME280;4807;48.024;11.726;2023-03-25T01:30:14;94444.31;;;8.19;69.10
9538;BME280;4807;48.024;11.726;2023-03-25T01:33:24;94431.47;;;8.22;68.31
9538;BME280;4807;48.024;11.726;2023-03-25T01:36:34;94438.78;;;8.14;68.94
9538;BME280;4807;48.024;11.726;2023-03-25T01:39:45;94426.31;;;8.08;68.66
9538;BME280;4807;48.024;11.726;2023-03-25T01:42:54;94416.31;;;8.03;69.36
9538;BME280;4807;48.024;11.726;2023-03-25T01:46:03;94418.56;;;8.06;68.99
9538;BME280;4807;48.024;11.726;2023-03-25T01:49:20;94424.03;;;7.98;69.73
9538;BME280;4807;48.024;11.726;2023-03-25T01:52:30;94412.63;;;8.04;69.05
9538;BME280;4807;48.024;11.726;2023-03-25T01:55:39;94431.06;;;8.19;68.04
9538;BME280;4807;48.024;11.726;2023-03-25T01:58:50;94418.50;;;8.34;66.65
9538;BME280;4807;48.024;11.726;2023-03-25T02:02:02;94422.59;;;8.43;65.86
9538;BME280;4807;48.024;11.726;2023-03-25T02:05:19;94418.31;;;8.42;65.64
9538;BME280;4807;48.024;11.726;2023-03-25T02:08:33;94411.19;;;8.43;66.12
9538;BME280;4807;48.024;11.726;2023-03-25T02:11:44;94425.84;;;8.45;65.90
9538;BME280;4807;48.024;11.726;2023-03-25T02:14:53;94417.47;;;8.35;66.74
9538;BME280;4807;48.024;11.726;2023-03-25T02:18:23;94425.38;;;8.28;66.87
9538;BME280;4807;48.024;11.726;2023-03-25T02:22:11;94431.13;;;8.32;66.69
9538;BME280;4807;48.024;11.726;2023-03-25T02:29:24;94419.88;;;8.30;67.85
9538;BME280;4807;48.024;11.726;2023-03-25T02:33:14;94411.09;;;8.29;68.25
9538;BME280;4807;48.024;11.726;2023-03-25T02:37:13;94416.38;;;8.23;67.70
9538;BME280;4807;48.024;11.726;2023-03-25T02:40:35;94400.78;;;7.93;68.71
9538;BME280;4807;48.024;11.726;2023-03-25T02:43:55;94415.19;;;7.78;69.60
9538;BME280;4807;48.024;11.726;2023-03-25T02:47:08;94408.09;;;7.85;68.54
9538;BME280;4807;48.024;11.726;2023-03-25T02:50:23;94412.53;;;7.78;68.43
9538;BME280;4807;48.024;11.726;2023-03-25T02:53:35;94419.84;;;7.69;68.91
9538;BME280;4807;48.024;11.726;2023-03-25T02:56:50;94425.69;;;7.58;69.38
9538;BME280;4807;48.024;11.726;2023-03-25T03:00:09;94422.41;;;7.56;69.18
9538;BME280;4807;48.024;11.726;2023-03-25T03:03:21;94427.47;;;7.51;69.34
9538;BME280;4807;48.024;11.726;2023-03-25T03:06:32;94427.09;;;7.54;68.82
9538;BME280;4807;48.024;11.726;2023-03-25T03:09:51;94422.09;;;7.38;69.25
9538;BME280;4807;48.024;11.726;2023-03-25T03:13:15;94426.47;;;7.52;68.33
9538;BME280;4807;48.024;11.726;2023-03-25T03:16:39;94421.84;;;7.67;67.74
9538;BME280;4807;48.024;11.726;2023-03-25T03:19:54;94426.38;;;7.73;67.30
9538;BME280;4807;48.024;11.726;2023-03-25T03:23:10;94412.50;;;7.71;68.23
9538;BME280;4807;48.024;11.726;2023-03-25T03:26:33;94424.53;;;7.74;67.45
9538;BME280;4807;48.024;11.726;2023-03-25T03:29:50;94414.97;;;7.79;66.71
9538;BME280;4807;48.024;11.726;2023-03-25T03:33:07;94404.31;;;7.66;67.58
9538;BME280;4807;48.024;11.726;2023-03-25T03:36:25;94425.13;;;7.69;67.47
9538;BME280;4807;48.024;11.726;2023-03-25T03:39:37;94424.88;;;7.64;68.35
9538;BME280;4807;48.024;11.726;2023-03-25T03:42:50;94421.19;;;7.58;68.23
9538;BME280;4807;48.024;11.726;2023-03-25T03:46:05;94428.53;;;7.63;67.53
9538;BME280;4807;48.024;11.726;2023-03-25T03:49:20;94426.63;;;7.44;68.21
9538;BME280;4807;48.024;11.726;2023-03-25T03:52:35;94429.00;;;7.39;69.03
9538;BME280;4807;48.024;11.726;2023-03-25T03:55:49;94438.50;;;7.26;68.63
9538;BME280;4807;48.024;11.726;2023-03-25T03:59:02;94436.09;;;7.32;68.10
9538;BME280;4807;48.024;11.726;2023-03-25T04:02:24;94441.00;;;7.07;69.37
9538;BME280;4807;48.024;11.726;2023-03-25T04:05:36;94442.09;;;7.12;68.59
9538;BME280;4807;48.024;11.726;2023-03-25T04:08:53;94442.16;;;6.98;69.04
9538;BME280;4807;48.024;11.726;2023-03-25T04:12:12;94446.88;;;7.02;68.26
9538;BME280;4807;48.024;11.726;2023-03-25T04:15:22;94443.78;;;6.99;68.60
9538;BME280;4807;48.024;11.726;2023-03-25T04:18:31;94451.38;;;6.80;68.51
9538;BME280;4807;48.024;11.726;2023-03-25T04:21:40;94444.41;;;6.73;69.14
9538;BME280;4807;48.024;11.726;2023-03-25T04:24:50;94446.91;;;6.60;69.22
9538;BME280;4807;48.024;11.726;2023-03-25T04:28:02;94451.25;;;6.67;68.59
9538;BME280;4807;48.024;11.726;2023-03-25T04:31:13;94453.81;;;6.82;67.59
9538;BME280;4807;48.024;11.726;2023-03-25T04:34:24;94450.69;;;6.72;68.19
9538;BME280;4807;48.024;11.726;2023-03-25T04:37:33;94459.50;;;6.79;67.93
9538;BME280;4807;48.024;11.726;2023-03-25T04:40:44;94455.84;;;6.80;67.51
9538;BME280;4807;48.024;11.726;2023-03-25T04:43:53;94457.63;;;6.73;67.33
9538;BME280;4807;48.024;11.726;2023-03-25T04:47:02;94466.31;;;6.88;67.14
9538;BME280;4807;48.024;11.726;2023-03-25T04:50:20;94470.34;;;7.05;66.04
9538;BME280;4807;48.024;11.726;2023-03-25T04:53:29;94468.09;;;7.09;65.62
9538;BME280;4807;48.024;11.726;2023-03-25T04:56:37;94469.09;;;7.08;66.31
9538;BME280;4807;48.024;11.726;2023-03-25T04:59:46;94468.94;;;7.09;66.40
9538;BME280;4807;48.024;11.726;2023-03-25T05:02:55;94486.22;;;7.05;66.64
9538;BME280;4807;48.024;11.726;2023-03-25T05:06:09;94470.75;;;7.09;66.42
9538;BME280;4807;48.024;11.726;2023-03-25T05:09:19;94473.13;;;6.97;67.92
9538;BME280;4807;48.024;11.726;2023-03-25T05:12:30;94461.38;;;6.85;67.89
9538;BME280;4807;48.024;11.726;2023-03-25T05:15:38;94467.72;;;6.90;68.20
9538;BME280;4807;48.024;11.726;2023-03-25T05:18:47;94458.50;;;6.80;68.29
9538;BME280;4807;48.024;11.726;2023-03-25T05:21:56;94460.00;;;6.89;67.92
9538;BME280;4807;48.024;11.726;2023-03-25T05:25:09;94467.72;;;6.90;67.26
9538;BME280;4807;48.024;11.726;2023-03-25T05:28:17;94451.31;;;6.95;67.16
9538;BME280;4807;48.024;11.726;2023-03-25T05:31:26;94449.44;;;6.89;67.33
9538;BME280;4807;48.024;11.726;2023-03-25T05:34:35;94447.69;;;6.81;67.90
9538;BME280;4807;48.024;11.726;2023-03-25T05:37:46;94445.00;;;6.96;66.78
9538;BME280;4807;48.024;11.726;2023-03-25T05:40:56;94452.53;;;6.99;66.95
9538;BME280;4807;48.024;11.726;2023-03-25T05:44:07;94470.44;;;7.18;66.62
9538;BME280;4807;48.024;11.726;2023-03-25T05:47:17;94471.22;;;7.47;65.86
9538;BME280;4807;48.024;11.726;2023-03-25T05:50:28;94461.81;;;7.72;65.67
9538;BME280;4807;48.024;11.726;2023-03-25T05:53:38;94474.41;;;7.98;63.77
9538;BME280;4807;48.024;11.726;2023-03-25T05:56:46;94476.56;;;8.29;62.79
9538;BME280;4807;48.024;11.726;2023-03-25T05:59:55;94468.28;;;8.38;62.35
9538;BME280;4807;48.024;11.726;2023-03-25T06:03:06;94465.06;;;8.50;62.31
9538;BME280;4807;48.024;11.726;2023-03-25T06:06:15;94471.56;;;8.40;61.25
9538;BME280;4807;48.024;11.726;2023-03-25T06:09:27;94482.53;;;8.31;60.71
9538;BME280;4807;48.024;11.726;2023-03-25T06:12:38;94486.31;;;8.15;61.31
9538;BME280;4807;48.024;11.726;2023-03-25T06:15:46;94479.75;;;8.11;61.27
9538;BME280;4807;48.024;11.726;2023-03-25T06:18:55;94495.47;;;8.13;61.52
9538;BME280;4807;48.024;11.726;2023-03-25T06:22:07;94522.81;;;8.13;60.68
9538;BME280;4807;48.024;11.726;2023-03-25T06:25:19;94514.78;;;8.00;61.19
9538;BME280;4807;48.024;11.726;2023-03-25T06:28:27;94525.66;;;8.12;61.63
9538;BME280;4807;48.024;11.726;2023-03-25T06:31:36;94527.16;;;8.27;61.85
9538;BME280;4807;48.024;11.726;2023-03-25T06:34:45;94529.09;;;8.05;61.92
9538;BME280;4807;48.024;11.726;2023-03-25T06:37:54;94540.09;;;8.02;61.93
9538;BME280;4807;48.024;11.726;2023-03-25T06:41:29;94541.88;;;7.95;62.22
9538;BME280;4807;48.024;11.726;2023-03-25T06:44:54;94541.34;;;7.79;62.14
9538;BME280;4807;48.024;11.726;2023-03-25T06:48:22;94558.78;;;7.60;63.74
9538;BME280;4807;48.024;11.726;2023-03-25T06:51:31;94571.75;;;7.55;64.04
9538;BME280;4807;48.024;11.726;2023-03-25T06:54:39;94552.78;;;7.51;63.47
9538;BME280;4807;48.024;11.726;2023-03-25T06:57:49;94563.19;;;7.32;64.29
9538;BME280;4807;48.024;11.726;2023-03-25T07:01:01;94567.88;;;7.30;64.30
9538;BME280;4807;48.024;11.726;2023-03-25T07:04:13;94582.63;;;7.39;64.73
9538;BME280;4807;48.024;11.726;2023-03-25T07:07:23;94576.25;;;7.33;64.00
9538;BME280;4807;48.024;11.726;2023-03-25T07:10:32;94567.22;;;7.49;63.54
9538;BME280;4807;48.024;11.726;2023-03-25T07:13:42;94576.31;;;7.61;62.40
9538;BME280;4807;48.024;11.726;2023-03-25T07:16:52;94574.63;;;7.53;63.20
9538;BME280;4807;48.024;11.726;2023-03-25T07:20:00;94580.97;;;7.59;62.29
9538;BME280;4807;48.024;11.726;2023-03-25T07:23:09;94587.78;;;7.47;63.40
9538;BME280;4807;48.024;11.726;2023-03-25T07:26:17;94599.16;;;7.62;61.84
9538;BME280;4807;48.024;11.726;2023-03-25T07:29:27;94589.41;;;7.69;62.25
9538;BME280;4807;48.024;11.726;2023-03-25T07:32:35;94589.06;;;7.79;61.94
9538;BME280;4807;48.024;11.726;2023-03-25T07:35:44;94594.13;;;7.74;61.38
9538;BME280;4807;48.024;11.726;2023-03-25T07:38:53;94592.66;;;7.71;61.63
9538;BME280;4807;48.024;11.726;2023-03-25T07:42:04;94606.28;;;7.89;61.79
9538;BME280;4807;48.024;11.726;2023-03-25T07:45:37;94608.41;;;8.00;61.76
9538;BME280;4807;48.024;11.726;2023-03-25T07:48:50;94613.00;;;7.85;61.86
9538;BME280;4807;48.024;11.726;2023-03-25T07:51:59;94605.50;;;7.95;60.95
9538;BME280;4807;48.024;11.726;2023-03-25T07:55:08;94604.75;;;8.01;60.45
9538;BME280;4807;48.024;11.726;2023-03-25T07:58:16;94614.91;;;8.26;61.59
9538;BME280;4807;48.024;11.726;2023-03-25T08:01:27;94601.34;;;8.42;60.39
9538;BME280;4807;48.024;11.726;2023-03-25T08:04:35;94607.91;;;8.46;60.80
9538;BME280;4807;48.024;11.726;2023-03-25T08:07:43;94612.34;;;8.39;60.57
9538;BME280;4807;48.024;11.726;2023-03-25T08:10:51;94606.34;;;8.30;60.71
9538;BME280;4807;48.024;11.726;2023-03-25T08:14:00;94600.88;;;8.32;60.50
9538;BME280;4807;48.024;11.726;2023-03-25T08:17:09;94603.75;;;8.37;61.09
9538;BME280;4807;48.024;11.726;2023-03-25T08:20:18;94617.56;;;8.26;60.58
9538;BME280;4807;48.024;11.726;2023-03-25T08:23:27;94620.47;;;8.65;60.70
9538;BME280;4807;48.024;11.726;2023-03-25T08:26:35;94631.59;;;9.63;57.71
9538;BME280;4807;48.024;11.726;2023-03-25T08:29:45;94621.97;;;9.75;57.92
9538;BME280;4807;48.024;11.726;2023-03-25T08:33:01;94619.00;;;9.17;57.85
9538;BME280;4807;48.024;11.726;2023-03-25T08:36:10;94640.38;;;8.89;60.08
9538;BME280;4807;48.024;11.726;2023-03-25T08:39:20;94622.16;;;8.79;59.75
9538;BME280;4807;48.024;11.726;2023-03-25T08:42:36;94616.94;;;8.58;60.50
9538;BME280;4807;48.024;11.726;2023-03-25T08:45:45;94607.22;;;8.78;59.69
9538;BME280;4807;48.024;11.726;2023-03-25T08:48:54;94610.84;;;8.64;60.74
9538;BME280;4807;48.024;11.726;2023-03-25T08:52:03;94614.63;;;8.83;60.81
9538;BME280;4807;48.024;11.726;2023-03-25T08:55:14;94606.50;;;9.04;60.04
9538;BME280;4807;48.024;11.726;2023-03-25T08:58:24;94598.34;;;9.06;59.55
9538;BME280;4807;48.024;11.726;2023-03-25T09:01:33;94598.00;;;9.22;60.00
9538;BME280;4807;48.024;11.726;2023-03-25T09:04:42;94604.31;;;9.28;59.92
9538;BME280;4807;48.024;11.726;2023-03-25T09:07:50;94600.84;;;9.34;59.65
9538;BME280;4807;48.024;11.726;2023-03-25T09:10:59;94605.59;;;9.38;58.64
9538;BME280;4807;48.024;11.726;2023-03-25T09:14:11;94598.22;;;9.40;58.81
9538;BME280;4807;48.024;11.726;2023-03-25T09:17:23;94605.19;;;9.54;58.32
9538;BME280;4807;48.024;11.726;2023-03-25T09:20:34;94594.78;;;9.73;57.74
9538;BME280;4807;48.024;11.726;2023-03-25T09:23:43;94584.16;;;9.73;57.37
9538;BME280;4807;48.024;11.726;2023-03-25T09:26:51;94603.78;;;9.72;57.71
9538;BME280;4807;48.024;11.726;2023-03-25T09:30:00;94600.50;;;9.56;58.08
9538;BME280;4807;48.024;11.726;2023-03-25T09:33:09;94601.50;;;9.82;57.35
9538;BME280;4807;48.024;11.726;2023-03-25T09:36:19;94594.56;;;10.07;55.17
9538;BME280;4807;48.024;11.726;2023-03-25T09:39:28;94588.50;;;10.71;54.27
9538;BME280;4807;48.024;11.726;2023-03-25T09:42:51;94584.53;;;10.22;53.72
9538;BME280;4807;48.024;11.726;2023-03-25T09:46:05;94587.00;;;10.88;53.74
9538;BME280;4807;48.024;11.726;2023-03-25T09:49:21;94582.16;;;11.17;53.13
9538;BME280;4807;48.024;11.726;2023-03-25T09:52:40;94562.28;;;10.75;51.42
9538;BME280;4807;48.024;11.726;2023-03-25T09:55:51;94579.78;;;10.51;54.03
9538;BME280;4807;48.024;11.726;2023-03-25T09:59:04;94577.72;;;10.53;54.20
9538;BME280;4807;48.024;11.726;2023-03-25T10:02:28;94576.03;;;10.65;53.17
9538;BME280;4807;48.024;11.726;2023-03-25T10:06:12;94569.09;;;11.08;50.51
9538;BME280;4807;48.024;11.726;2023-03-25T10:09:41;94572.44;;;11.29;50.53
9538;BME280;4807;48.024;11.726;2023-03-25T10:13:08;94555.75;;;11.46;50.57
9538;BME280;4807;48.024;11.726;2023-03-25T10:16:31;94558.53;;;11.58;50.87
9538;BME280;4807;48.024;11.726;2023-03-25T10:19:55;94545.69;;;11.73;48.87
9538;BME280;4807;48.024;11.726;2023-03-25T10:23:21;94529.38;;;11.88;48.91
9538;BME280;4807;48.024;11.726;2023-03-25T10:26:41;94549.72;;;11.58;47.63
9538;BME280;4807;48.024;11.726;2023-03-25T10:29:56;94531.50;;;12.04;48.83
9538;BME280;4807;48.024;11.726;2023-03-25T10:33:15;94518.06;;;11.93;47.47
9538;BME280;4807;48.024;11.726;2023-03-25T10:36:32;94520.19;;;12.27;49.01
9538;BME280;4807;48.024;11.726;2023-03-25T10:39:42;94519.91;;;11.67;49.12
9538;BME280;4807;48.024;11.726;2023-03-25T10:43:12;94511.78;;;11.56;49.71
9538;BME280;4807;48.024;11.726;2023-03-25T10:46:29;94507.34;;;12.36;49.00
9538;BME280;4807;48.024;11.726;2023-03-25T10:49:40;94492.44;;;12.65;47.78
9538;BME280;4807;48.024;11.726;2023-03-25T10:52:50;94511.56;;;12.80;47.12
9538;BME280;4807;48.024;11.726;2023-03-25T10:56:04;94505.56;;;12.11;46.93
9538;BME280;4807;48.024;11.726;2023-03-25T10:59:25;94503.94;;;11.61;46.63
9538;BME280;4807;48.024;11.726;2023-03-25T11:02:34;94516.94;;;11.82;48.32
9538;BME280;4807;48.024;11.726;2023-03-25T11:05:43;94496.72;;;11.93;48.97
9538;BME280;4807;48.024;11.726;2023-03-25T11:09:09;94503.38;;;11.83;48.91
9538;BME280;4807;48.024;11.726;2023-03-25T11:12:21;94502.75;;;12.06;50.43
9538;BME280;4807;48.024;11.726;2023-03-25T11:15:52;94492.00;;;12.13;47.97
9538;BME280;4807;48.024;11.726;2023-03-25T11:19:03;94487.09;;;11.92;48.12
9538;BME280;4807;48.024;11.726;2023-03-25T11:22:17;94486.50;;;12.26;48.82
9538;BME280;4807;48.024;11.726;2023-03-25T11:25:34;94477.38;;;12.34;48.21
9538;BME280;4807;48.024;11.726;2023-03-25T11:28:48;94473.13;;;12.81;47.09
9538;BME280;4807;48.024;11.726;2023-03-25T11:32:06;94467.84;;;12.44;47.53
9538;BME280;4807;48.024;11.726;2023-03-25T11:35:21;94463.47;;;12.32;48.36
9538;BME280;4807;48.024;11.726;2023-03-25T11:38:31;94480.13;;;12.09;47.75
9538;BME280;4807;48.024;11.726;2023-03-25T11:41:45;94468.19;;;11.68;47.36
9538;BME280;4807;48.024;11.726;2023-03-25T11:44:55;94458.03;;;11.83;48.16
9538;BME280;4807;48.024;11.726;2023-03-25T11:48:14;94450.03;;;12.02;47.67
9538;BME280;4807;48.024;11.726;2023-03-25T11:51:27;94447.66;;;11.69;49.11
9538;BME280;4807;48.024;11.726;2023-03-25T11:54:38;94456.63;;;11.81;48.26
9538;BME280;4807;48.024;11.726;2023-03-25T11:57:49;94436.47;;;12.03;48.36
9538;BME280;4807;48.024;11.726;2023-03-25T12:01:02;94433.03;;;12.51;47.88
9538;BME280;4807;48.024;11.726;2023-03-25T12:04:17;94438.25;;;12.46;47.51
9538;BME280;4807;48.024;11.726;2023-03-25T12:07:25;94412.69;;;12.20;46.36
9538;BME280;4807;48.024;11.726;2023-03-25T12:10:48;94428.91;;;11.82;47.30
9538;BME280;4807;48.024;11.726;2023-03-25T12:14:24;94434.81;;;11.84;47.87
9538;BME280;4807;48.024;11.726;2023-03-25T12:17:50;94422.78;;;11.57;48.15
9538;BME280;4807;48.024;11.726;2023-03-25T12:21:14;94423.75;;;11.62;49.33
9538;BME280;4807;48.024;11.726;2023-03-25T12:24:49;94417.06;;;11.53;48.69
9538;BME280;4807;48.024;11.726;2023-03-25T12:28:25;94431.31;;;11.65;48.77
9538;BME280;4807;48.024;11.726;2023-03-25T12:31:57;94412.59;;;12.08;47.46
9538;BME280;4807;48.024;11.726;2023-03-25T12:35:25;94423.28;;;11.90;48.47
9538;BME280;4807;48.024;11.726;2023-03-25T12:38:51;94414.63;;;11.95;48.23
9538;BME280;4807;48.024;11.726;2023-03-25T12:42:23;94432.00;;;11.79;49.82
9538;BME280;4807;48.024;11.726;2023-03-25T12:46:01;94434.56;;;12.10;48.21
9538;BME280;4807;48.024;11.726;2023-03-25T12:49:37;94435.66;;;12.03;47.67
9538;BME280;4807;48.024;11.726;2023-03-25T12:52:55;94433.00;;;12.03;48.13
9538;BME280;4807;48.024;11.726;2023-03-25T12:56:24;94424.53;;;11.88;49.18
9538;BME280;4807;48.024;11.726;2023-03-25T12:59:59;94435.22;;;11.63;49.81
9538;BME280;4807;48.024;11.726;2023-03-25T13:03:44;94434.88;;;11.34;49.79
9538;BME280;4807;48.024;11.726;2023-03-25T13:07:02;94438.66;;;11.45;50.32
9538;BME280;4807;48.024;11.726;2023-03-25T13:10:16;94425.44;;;11.07;50.68
9538;BME280;4807;48.024;11.726;2023-03-25T13:13:30;94450.34;;;10.94;51.75
9538;BME280;4807;48.024;11.726;2023-03-25T13:16:42;94441.56;;;10.87;51.65
9538;BME280;4807;48.024;11.726;2023-03-25T13:19:57;94440.94;;;10.92;52.37
9538;BME280;4807;48.024;11.726;2023-03-25T13:23:13;94447.19;;;11.29;51.95
9538;BME280;4807;48.024;11.726;2023-03-25T13:26:27;94440.75;;;11.43;51.27
9538;BME280;4807;48.024;11.726;2023-03-25T13:29:43;94452.97;;;11.26;51.43
9538;BME280;4807;48.024;11.726;2023-03-25T13:32:57;94439.69;;;10.94;53.59
9538;BME280;4807;48.024;11.726;2023-03-25T13:36:16;94445.94;;;11.06;54.19
9538;BME280;4807;48.024;11.726;2023-03-25T13:39:49;94448.94;;;11.17;54.31
9538;BME280;4807;48.024;11.726;2023-03-25T13:43:06;94460.72;;;11.27;54.03
9538;BME280;4807;48.024;11.726;2023-03-25T13:46:28;94465.84;;;10.66;55.11
9538;BME280;4807;48.024;11.726;2023-03-25T13:49:46;94456.69;;;10.62;56.24
9538;BME280;4807;48.024;11.726;2023-03-25T13:53:04;94469.56;;;10.96;56.11
9538;BME280;4807;48.024;11.726;2023-03-25T13:57:09;94457.63;;;11.05;55.36
9538;BME280;4807;48.024;11.726;2023-03-25T14:00:46;94460.69;;;10.78;55.56
9538;BME280;4807;48.024;11.726;2023-03-25T14:08:18;94462.28;;;10.85;54.15
9538;BME280;4807;48.024;11.726;2023-03-25T14:11:36;94454.88;;;10.87;55.04
9538;BME280;4807;48.024;11.726;2023-03-25T14:14:55;94468.47;;;10.73;54.72
9538;BME280;4807;48.024;11.726;2023-03-25T14:18:12;94453.25;;;10.86;55.51
9538;BME280;4807;48.024;11.726;2023-03-25T14:21:33;94452.47;;;10.79;54.92
9538;BME280;4807;48.024;11.726;2023-03-25T14:24:49;94447.22;;;10.66;55.13
9538;BME280;4807;48.024;11.726;2023-03-25T14:28:00;94443.22;;;10.50;55.06
9538;BME280;4807;48.024;11.726;2023-03-25T14:31:28;94436.28;;;10.43;54.25
9538;BME280;4807;48.024;11.726;2023-03-25T14:34:37;94434.25;;;10.45;54.30
9538;BME280;4807;48.024;11.726;2023-03-25T14:37:49;94436.69;;;10.40;53.32
9538;BME280;4807;48.024;11.726;2023-03-25T14:40:57;94440.31;;;10.58;54.18
9538;BME280;4807;48.024;11.726;2023-03-25T14:44:16;94428.75;;;10.71;53.82
9538;BME280;4807;48.024;11.726;2023-03-25T14:47:29;94439.91;;;10.55;53.77
9538;BME280;4807;48.024;11.726;2023-03-25T14:50:38;94434.16;;;10.58;54.82
9538;BME280;4807;48.024;11.726;2023-03-25T14:53:55;94415.28;;;10.66;53.62
9538;BME280;4807;48.024;11.726;2023-03-25T14:57:13;94433.25;;;10.77;53.83
9538;BME280;4807;48.024;11.726;2023-03-25T15:00:29;94431.16;;;10.79;52.56
9538;BME280;4807;48.024;11.726;2023-03-25T15:03:42;94430.34;;;10.79;51.78
9538;BME280;4807;48.024;11.726;2023-03-25T15:06:52;94424.81;;;10.80;53.51
9538;BME280;4807;48.024;11.726;2023-03-25T15:10:04;94415.53;;;10.89;51.60
9538;BME280;4807;48.024;11.726;2023-03-25T15:13:18;94410.66;;;10.80;53.06
9538;BME280;4807;48.024;11.726;2023-03-25T15:16:34;94425.06;;;10.72;52.27
9538;BME280;4807;48.024;11.726;2023-03-25T15:20:25;94419.22;;;10.88;53.22
9538;BME280;4807;48.024;11.726;2023-03-25T15:23:40;94429.19;;;10.99;53.42
9538;BME280;4807;48.024;11.726;2023-03-25T15:26:53;94443.06;;;10.77;52.60
9538;BME280;4807;48.024;11.726;2023-03-25T15:30:17;94426.28;;;10.76;52.47
9538;BME280;4807;48.024;11.726;2023-03-25T15:33:54;94449.78;;;10.86;52.43
9538;BME280;4807;48.024;11.726;2023-03-25T15:37:44;94414.56;;;10.84;51.02
9538;BME280;4807;48.024;11.726;2023-03-25T15:41:15;94423.56;;;10.83;52.18
9538;BME280;4807;48.024;11.726;2023-03-25T15:52:52;94421.63;;;10.96;51.78
9538;BME280;4807;48.024;11.726;2023-03-25T15:56:09;94429.56;;;11.28;50.32
9538;BME280;4807;48.024;11.726;2023-03-25T15:59:30;94439.19;;;11.29;51.49
9538;BME280;4807;48.024;11.726;2023-03-25T16:02:48;94426.69;;;11.04;51.20
9538;BME280;4807;48.024;11.726;2023-03-25T16:06:02;94445.78;;;11.01;50.55
9538;BME280;4807;48.024;11.726;2023-03-25T16:09:17;94436.84;;;10.89;51.18
9538;BME280;4807;48.024;11.726;2023-03-25T16:12:28;94430.22;;;10.98;50.43
9538;BME280;4807;48.024;11.726;2023-03-25T16:15:39;94428.38;;;11.24;50.47
9538;BME280;4807;48.024;11.726;2023-03-25T16:18:49;94444.72;;;11.34;50.94
9538;BME280;4807;48.024;11.726;2023-03-25T16:22:13;94442.75;;;11.23;49.26
9538;BME280;4807;48.024;11.726;2023-03-25T16:25:26;94432.75;;;11.18;49.88
9538;BME280;4807;48.024;11.726;2023-03-25T16:28:40;94430.31;;;10.85;49.97
9538;BME280;4807;48.024;11.726;2023-03-25T16:31:56;94435.41;;;10.55;51.26
9538;BME280;4807;48.024;11.726;2023-03-25T16:35:19;94435.47;;;10.42;51.97
9538;BME280;4807;48.024;11.726;2023-03-25T16:38:30;94428.81;;;10.20;52.25
9538;BME280;4807;48.024;11.726;2023-03-25T16:41:43;94445.56;;;10.14;52.97
9538;BME280;4807;48.024;11.726;2023-03-25T16:44:53;94459.91;;;10.06;53.46
9538;BME280;4807;48.024;11.726;2023-03-25T16:48:05;94459.91;;;10.06;53.45
9538;BME280;4807;48.024;11.726;2023-03-25T16:51:22;94467.09;;;10.12;52.92
9538;BME280;4807;48.024;11.726;2023-03-25T16:54:42;94457.47;;;10.11;53.03
9538;BME280;4807;48.024;11.726;2023-03-25T16:57:51;94463.63;;;10.12;52.32
9538;BME280;4807;48.024;11.726;2023-03-25T17:01:02;94455.66;;;9.99;53.26
9538;BME280;4807;48.024;11.726;2023-03-25T17:04:19;94455.28;;;9.95;52.05
9538;BME280;4807;48.024;11.726;2023-03-25T17:07:30;94463.44;;;9.93;53.24
9538;BME280;4807;48.024;11.726;2023-03-25T17:10:47;94473.69;;;9.97;52.96
9538;BME280;4807;48.024;11.726;2023-03-25T17:13:59;94474.06;;;10.00;52.79
9538;BME280;4807;48.024;11.726;2023-03-25T17:17:33;94458.34;;;9.92;52.87
9538;BME280;4807;48.024;11.726;2023-03-25T17:20:46;94465.75;;;9.77;52.83
9538;BME280;4807;48.024;11.726;2023-03-25T17:24:00;94473.34;;;9.53;53.38
9538;BME280;4807;48.024;11.726;2023-03-25T17:27:24;94478.66;;;9.34;53.46
9538;BME280;4807;48.024;11.726;2023-03-25T17:30:39;94478.03;;;9.12;54.04
9538;BME280;4807;48.024;11.726;2023-03-25T17:33:51;94484.34;;;8.98;54.76
9538;BME280;4807;48.024;11.726;2023-03-25T17:37:01;94499.88;;;9.01;54.63
9538;BME280;4807;48.024;11.726;2023-03-25T17:40:21;94470.03;;;8.86;54.61
9538;BME280;4807;48.024;11.726;2023-03-25T17:43:34;94490.41;;;8.65;55.90
9538;BME280;4807;48.024;11.726;2023-03-25T17:46:43;94491.44;;;8.64;55.44
9538;BME280;4807;48.024;11.726;2023-03-25T17:49:52;94500.19;;;8.58;56.30
9538;BME280;4807;48.024;11.726;2023-03-25T17:53:01;94495.91;;;8.57;56.61